createdAt,value
2018-12-06T00:01:58.821Z,24.53
2018-12-06T00:06:54.849Z,21.93
2018-12-06T00:11:50.989Z,20.00
2018-12-06T00:16:52.987Z,22.23
2018-12-06T00:21:49.020Z,24.77
2018-12-06T00:26:45.063Z,21.93
2018-12-06T00:31:41.088Z,23.37
2018-12-06T00:36:37.144Z,22.10
2018-12-06T00:41:33.342Z,22.57
2018-12-06T00:46:29.367Z,25.07
2018-12-06T00:51:25.401Z,21.23
2018-12-06T00:56:21.434Z,21.57
2018-12-06T01:01:17.567Z,24.43
2018-12-06T01:06:13.623Z,21.03
2018-12-06T01:11:09.625Z,20.37
2018-12-06T01:16:05.657Z,23.23
2018-12-06T01:21:01.802Z,21.20
2018-12-06T01:25:57.939Z,22.10
2018-12-06T01:30:53.990Z,24.17
2018-12-06T01:35:50.018Z,21.10
2018-12-06T01:40:46.234Z,18.00
2018-12-06T01:45:42.378Z,23.90
2018-12-06T01:50:38.405Z,23.87
2018-12-06T01:55:34.425Z,23.00
2018-12-06T02:00:30.566Z,22.57
2018-12-06T02:05:26.607Z,26.30
2018-12-06T02:10:22.648Z,22.57
2018-12-06T02:15:18.665Z,28.47
2018-12-06T02:20:14.719Z,26.30
2018-12-06T02:25:11.738Z,25.07
2018-12-06T02:30:07.899Z,21.90
2018-12-06T02:35:04.061Z,27.40
2018-12-06T02:40:00.086Z,25.70
2018-12-06T02:44:56.133Z,25.00
2018-12-06T02:49:52.162Z,32.43
2018-12-06T02:54:48.986Z,26.00
2018-12-06T02:59:45.697Z,27.90
2018-12-06T03:04:42.392Z,27.73
2018-12-06T03:09:38.545Z,27.90
2018-12-06T03:14:34.629Z,28.67
2018-12-06T03:19:30.658Z,38.13
2018-12-06T03:24:27.634Z,22.90
2018-12-06T03:29:23.680Z,26.70
2018-12-06T03:34:19.718Z,37.20
2018-12-06T03:39:15.781Z,27.37
2018-12-06T03:44:11.800Z,28.90
2018-12-06T03:49:07.825Z,28.87
2018-12-06T03:54:04.996Z,26.67
2018-12-06T03:59:01.050Z,28.60
2018-12-06T04:03:57.094Z,41.10
2018-12-06T04:08:53.143Z,29.33
2018-12-06T04:13:49.161Z,33.33
2018-12-06T04:18:45.197Z,27.10
2018-12-06T04:23:41.226Z,26.83
2018-12-06T04:28:37.296Z,24.07
2018-12-06T04:33:33.308Z,30.57
2018-12-06T04:38:29.327Z,25.43
2018-12-06T04:43:25.419Z,30.80
2018-12-06T04:48:22.185Z,32.20
2018-12-06T04:53:18.574Z,27.23
2018-12-06T04:58:14.592Z,29.60
2018-12-06T05:03:10.593Z,26.87
2018-12-06T05:08:06.637Z,26.50
2018-12-06T05:13:02.661Z,29.40
2018-12-06T05:17:58.695Z,27.57
2018-12-06T05:22:54.702Z,33.33
2018-12-06T05:27:50.727Z,25.97
2018-12-06T05:32:46.737Z,30.87
2018-12-06T05:37:42.777Z,29.10
2018-12-06T05:42:38.802Z,26.43
2018-12-06T05:47:34.826Z,24.20
2018-12-06T05:52:30.870Z,28.63
2018-12-06T05:57:26.933Z,23.30
2018-12-06T06:02:23.161Z,25.70
2018-12-06T06:07:19.173Z,26.70
2018-12-06T06:12:15.185Z,24.60
2018-12-06T06:17:11.318Z,23.97
2018-12-06T06:22:07.335Z,26.17
2018-12-06T06:27:03.370Z,27.43
2018-12-06T06:31:59.390Z,27.57
2018-12-06T06:36:55.413Z,22.67
2018-12-06T06:41:51.499Z,31.10
2018-12-06T06:46:47.572Z,27.50
2018-12-06T06:51:43.608Z,29.10
2018-12-06T06:56:39.642Z,28.27
2018-12-06T07:01:35.676Z,28.20
2018-12-06T07:06:31.891Z,26.27
2018-12-06T07:11:28.027Z,29.00
2018-12-06T07:16:24.115Z,31.63
2018-12-06T07:21:20.160Z,30.27
2018-12-06T07:26:16.227Z,26.67
2018-12-06T07:31:12.306Z,31.30
2018-12-06T07:36:08.326Z,32.77
2018-12-06T07:41:04.549Z,25.10
2018-12-06T07:46:06.623Z,29.30
2018-12-06T07:51:02.670Z,25.53
2018-12-06T07:55:58.729Z,29.23
2018-12-06T08:00:54.815Z,42.00
2018-12-06T08:05:50.958Z,27.70
2018-12-06T08:10:47.006Z,34.73
2018-12-06T08:15:43.218Z,32.47
2018-12-06T08:20:39.252Z,30.73
2018-12-06T08:25:35.270Z,25.70
2018-12-06T08:30:31.295Z,32.93
2018-12-06T08:35:27.598Z,35.90
2018-12-06T08:40:23.667Z,37.57
2018-12-06T08:45:19.820Z,34.43
2018-12-06T08:50:15.899Z,32.60
2018-12-06T08:55:12.684Z,28.07
2018-12-06T09:00:09.634Z,34.80
2018-12-06T09:05:06.069Z,25.07
2018-12-06T09:10:03.919Z,29.10
2018-12-06T09:14:59.985Z,23.53
2018-12-06T09:19:56.029Z,26.70
2018-12-06T09:24:52.897Z,28.90
2018-12-06T09:29:48.934Z,26.93
2018-12-06T09:34:45.097Z,28.27
2018-12-06T09:39:48.043Z,32.23
2018-12-06T09:44:45.611Z,27.40
2018-12-06T09:49:41.722Z,29.03
2018-12-06T09:54:43.118Z,27.63
2018-12-06T09:59:39.341Z,30.60
2018-12-06T10:04:35.396Z,33.30
2018-12-06T10:09:31.434Z,31.43
2018-12-06T10:14:27.472Z,28.00
2018-12-06T10:19:23.606Z,29.33
2018-12-06T10:24:21.915Z,31.30
2018-12-06T10:29:18.650Z,32.20
2018-12-06T10:34:14.693Z,31.00
2018-12-06T10:39:10.736Z,35.70
2018-12-06T10:44:06.813Z,46.90
2018-12-06T10:49:02.853Z,39.03
2018-12-06T10:54:01.362Z,34.43
2018-12-06T10:58:57.488Z,39.80
2018-12-06T11:03:56.505Z,30.23
2018-12-06T11:08:52.566Z,31.23
2018-12-06T11:13:48.605Z,36.10
2018-12-06T11:18:44.663Z,30.10
2018-12-06T11:24:16.636Z,26.87
2018-12-06T11:29:12.817Z,31.30
2018-12-06T11:34:08.964Z,32.20
2018-12-06T11:39:06.330Z,37.90
2018-12-06T11:44:02.504Z,42.90
2018-12-06T11:48:58.537Z,41.23
2018-12-06T11:53:54.570Z,40.63
2018-12-06T11:58:50.631Z,48.63
2018-12-06T12:03:46.722Z,40.23
2018-12-06T12:08:42.797Z,44.80
2018-12-06T12:13:38.858Z,41.20
2018-12-06T12:18:34.932Z,50.60
2018-12-06T12:23:31.023Z,43.90
2018-12-06T12:28:27.079Z,38.63
2018-12-06T12:33:23.131Z,38.73
2018-12-06T12:38:19.306Z,39.27
2018-12-06T12:43:15.353Z,50.20
2018-12-06T12:48:11.390Z,47.60
2018-12-06T12:53:07.450Z,40.33
2018-12-06T12:58:03.467Z,52.77
2018-12-06T13:02:59.613Z,46.20
2018-12-06T13:07:55.679Z,42.90
2018-12-06T13:12:51.841Z,45.30
2018-12-06T13:17:48.865Z,34.00
2018-12-06T13:22:45.554Z,42.80
2018-12-06T13:27:44.334Z,54.50
2018-12-06T13:32:40.987Z,49.10
2018-12-06T13:37:39.975Z,44.80
2018-12-06T13:42:37.987Z,38.57
2018-12-06T13:47:34.821Z,35.17
2018-12-06T13:52:31.666Z,38.77
2018-12-06T13:57:29.127Z,40.83
2018-12-06T14:02:26.772Z,35.87
2018-12-06T14:07:23.562Z,37.37
2018-12-06T14:12:20.270Z,45.13
2018-12-06T14:17:19.332Z,38.23
2018-12-06T14:22:16.019Z,44.20
2018-12-06T14:27:12.926Z,36.53
2018-12-06T14:32:10.147Z,50.97
2018-12-06T14:37:07.344Z,41.03
2018-12-06T14:42:07.246Z,42.67
2018-12-06T14:47:04.139Z,50.13
2018-12-06T14:52:01.018Z,45.27
2018-12-06T14:56:58.134Z,44.83
2018-12-06T15:01:55.011Z,60.57
2018-12-06T15:06:54.044Z,45.10
2018-12-06T15:11:51.941Z,55.50
2018-12-06T15:16:49.495Z,54.23
2018-12-06T15:21:46.408Z,56.33
2018-12-06T15:26:43.623Z,62.40
2018-12-06T15:31:45.605Z,45.37
2018-12-06T15:36:43.219Z,48.13
2018-12-06T15:41:40.983Z,37.47
2018-12-06T15:46:38.129Z,43.43
2018-12-06T15:51:34.715Z,37.90
2018-12-06T15:56:31.583Z,38.97
2018-12-06T16:01:28.050Z,50.07
2018-12-06T16:06:25.082Z,37.50
2018-12-06T16:11:21.374Z,32.07
2018-12-06T16:16:18.045Z,35.33
2018-12-06T16:21:14.453Z,31.47
2018-12-06T16:26:16.933Z,44.93
2018-12-06T16:31:13.677Z,31.50
2018-12-06T16:36:10.794Z,34.53
2018-12-06T16:41:08.644Z,34.57
2018-12-06T16:46:05.366Z,28.30
2018-12-06T16:51:01.645Z,39.77
2018-12-06T16:55:57.878Z,35.93
2018-12-06T17:00:55.093Z,26.53
2018-12-06T17:05:52.569Z,38.03
2018-12-06T17:10:49.326Z,36.73
2018-12-06T17:15:46.271Z,33.27
2018-12-06T17:20:46.827Z,35.77
2018-12-06T17:25:43.572Z,26.97
2018-12-06T17:30:41.149Z,39.03
2018-12-06T17:35:38.899Z,41.87
2018-12-06T17:40:37.215Z,34.00
2018-12-06T17:45:34.022Z,28.80
2018-12-06T17:50:32.217Z,31.17
2018-12-06T17:55:34.425Z,35.90
2018-12-06T18:00:30.986Z,35.43
2018-12-06T18:05:31.760Z,34.57
2018-12-06T18:10:28.685Z,29.00
2018-12-06T18:15:26.181Z,33.73
2018-12-06T18:20:23.521Z,36.87
2018-12-06T18:25:21.072Z,22.83
2018-12-06T18:30:18.236Z,18.13
2018-12-06T18:35:14.838Z,30.57
2018-12-06T18:40:12.582Z,35.90
2018-12-06T18:45:09.432Z,20.07
2018-12-06T18:50:06.899Z,30.97
2018-12-06T18:55:06.476Z,27.77
2018-12-06T19:00:04.551Z,24.73
2018-12-06T19:05:01.342Z,23.93
2018-12-06T19:09:58.105Z,31.93
2018-12-06T19:14:55.854Z,28.80
2018-12-06T19:19:52.760Z,24.70
2018-12-06T19:24:49.603Z,24.90
2018-12-06T19:29:46.361Z,26.13
2018-12-06T19:34:43.564Z,27.50
2018-12-06T19:39:46.411Z,27.13
2018-12-06T19:44:43.862Z,25.20
2018-12-06T19:49:40.899Z,28.07
2018-12-06T19:54:37.674Z,19.50
2018-12-06T19:59:35.392Z,29.90
2018-12-06T20:04:32.376Z,30.40
2018-12-06T20:09:30.067Z,25.30
2018-12-06T20:14:26.967Z,26.07
2018-12-06T20:19:24.662Z,28.27
2018-12-06T20:24:22.611Z,27.63
2018-12-06T20:29:19.532Z,28.27
2018-12-06T20:34:16.897Z,25.37
2018-12-06T20:39:12.997Z,38.07
2018-12-06T20:44:08.998Z,29.20
2018-12-06T20:49:05.051Z,30.43
2018-12-06T20:54:02.640Z,33.73
2018-12-06T20:58:58.706Z,22.90
2018-12-06T21:03:54.713Z,28.83
2018-12-06T21:08:50.724Z,25.50
2018-12-06T21:13:46.737Z,24.43
2018-12-06T21:18:42.830Z,26.07
2018-12-06T21:23:38.834Z,28.33
2018-12-06T21:28:34.860Z,15.20
2018-12-06T21:33:30.889Z,22.90
2018-12-06T21:38:26.897Z,27.13
2018-12-06T21:43:22.920Z,28.70
2018-12-06T21:48:18.927Z,31.93
2018-12-06T21:53:14.933Z,30.80
2018-12-06T21:58:11.059Z,29.43
2018-12-06T22:03:07.067Z,30.97
2018-12-06T22:08:07.254Z,32.23
2018-12-06T22:13:05.764Z,34.77
2018-12-06T22:18:02.846Z,34.90
2018-12-06T22:23:01.196Z,32.73
2018-12-06T22:27:58.493Z,31.63
2018-12-06T22:32:54.575Z,41.40
2018-12-06T22:37:50.683Z,38.53
2018-12-06T22:42:46.682Z,38.40
2018-12-06T22:47:42.709Z,25.63
2018-12-06T22:52:38.726Z,35.97
2018-12-06T22:57:34.743Z,33.80
2018-12-06T23:02:30.762Z,36.87
2018-12-06T23:07:26.790Z,27.70
2018-12-06T23:12:22.804Z,30.23
2018-12-06T23:17:18.842Z,43.07
2018-12-06T23:22:15.890Z,39.47
2018-12-06T23:27:13.400Z,42.60
2018-12-06T23:32:11.369Z,31.50
2018-12-06T23:37:07.768Z,40.83
2018-12-06T23:42:04.465Z,32.00
2018-12-06T23:47:00.529Z,30.03
2018-12-06T23:51:56.534Z,27.73
2018-12-06T23:56:54.561Z,22.43
